createdAt,value
2023-03-02T00:00:24.886Z,14.10
2023-03-02T00:02:57.709Z,14.20
2023-03-02T00:11:10.047Z,12.43
2023-03-02T00:13:45.807Z,12.30
2023-03-02T00:16:20.491Z,12.27
2023-03-02T00:18:54.138Z,12.57
2023-03-02T00:21:33.168Z,13.37
2023-03-02T00:24:05.302Z,12.77
2023-03-02T00:26:38.323Z,12.43
2023-03-02T00:32:04.500Z,13.60
2023-03-02T00:34:43.980Z,12.17
2023-03-02T00:37:34.408Z,12.63
2023-03-02T00:40:19.791Z,11.57
2023-03-02T00:43:11.820Z,12.10
2023-03-02T00:45:44.177Z,12.50
2023-03-02T00:48:24.419Z,11.87
2023-03-02T00:51:03.489Z,11.80
2023-03-02T00:53:51.402Z,11.93
2023-03-02T00:56:25.447Z,12.50
2023-03-02T00:59:01.543Z,13.17
2023-03-02T01:04:40.282Z,12.73
2023-03-02T01:07:15.515Z,12.67
2023-03-02T01:09:51.640Z,12.13
2023-03-02T01:12:26.104Z,12.90
2023-03-02T01:15:00.444Z,12.93
2023-03-02T01:17:32.069Z,11.93
2023-03-02T01:20:09.885Z,12.83
2023-03-02T01:22:40.285Z,11.47
2023-03-02T01:25:12.154Z,11.83
2023-03-02T01:27:43.621Z,11.83
2023-03-02T01:30:17.227Z,12.50
2023-03-02T01:32:51.332Z,12.30
2023-03-02T01:35:29.539Z,11.57
2023-03-02T01:38:05.864Z,12.73
2023-03-02T01:40:54.750Z,12.57
2023-03-02T01:43:28.356Z,13.10
2023-03-02T01:46:09.663Z,11.83
2023-03-02T01:48:54.138Z,12.03
2023-03-02T01:51:38.251Z,12.53
2023-03-02T01:54:25.856Z,12.20
2023-03-02T01:57:12.805Z,12.80
2023-03-02T01:59:47.863Z,11.93
2023-03-02T02:02:19.812Z,11.97
2023-03-02T02:04:51.195Z,11.97
2023-03-02T02:07:29.001Z,12.60
2023-03-02T02:10:10.129Z,12.03
2023-03-02T02:12:53.482Z,13.33
2023-03-02T02:15:29.431Z,12.90
2023-03-02T02:18:03.390Z,13.30
2023-03-02T02:20:42.277Z,13.13
2023-03-02T02:26:37.158Z,13.53
2023-03-02T02:29:17.916Z,14.00
2023-03-02T02:32:11.351Z,13.47
2023-03-02T02:34:51.125Z,13.40
2023-03-02T02:37:33.723Z,13.83
2023-03-02T02:40:19.687Z,13.77
2023-03-02T02:43:06.799Z,14.70
2023-03-02T02:45:56.208Z,14.03
2023-03-02T02:48:37.548Z,13.23
2023-03-02T02:51:16.643Z,12.87
2023-03-02T02:54:03.532Z,13.63
2023-03-02T02:59:38.497Z,12.83
2023-03-02T03:02:26.024Z,14.57
2023-03-02T03:05:02.711Z,12.90
2023-03-02T03:10:36.332Z,13.50
2023-03-02T03:16:00.091Z,13.57
2023-03-02T03:18:32.214Z,12.70
2023-03-02T03:21:04.036Z,13.27
2023-03-02T03:23:38.412Z,13.87
2023-03-02T03:26:09.882Z,14.60
2023-03-02T03:28:53.160Z,15.20
2023-03-02T03:31:26.921Z,15.47
2023-03-02T03:34:00.801Z,15.47
2023-03-02T03:36:36.520Z,16.23
2023-03-02T03:39:20.256Z,15.70
2023-03-02T03:41:58.557Z,15.47
2023-03-02T03:44:31.439Z,15.10
2023-03-02T03:47:12.438Z,15.17
2023-03-02T03:49:47.555Z,15.87
2023-03-02T03:52:30.926Z,15.30
2023-03-02T03:55:16.685Z,14.80
2023-03-02T03:57:51.611Z,15.93
2023-03-02T04:00:32.906Z,15.63
2023-03-02T04:03:28.590Z,14.73
2023-03-02T04:06:02.894Z,14.27
2023-03-02T04:08:51.090Z,16.33
2023-03-02T04:11:42.524Z,16.10
2023-03-02T04:14:16.601Z,15.30
2023-03-02T04:17:02.663Z,15.37
2023-03-02T04:19:38.807Z,15.63
2023-03-02T04:22:10.192Z,15.47
2023-03-02T04:24:47.386Z,15.57
2023-03-02T04:27:21.013Z,16.33
2023-03-02T04:29:59.569Z,15.97
2023-03-02T04:32:31.961Z,18.27
2023-03-02T04:35:06.674Z,17.60
2023-03-02T04:37:41.610Z,16.67
2023-03-02T04:40:16.218Z,16.20
2023-03-02T04:42:49.379Z,16.23
2023-03-02T04:45:24.958Z,14.27
2023-03-02T04:47:57.386Z,16.50
2023-03-02T04:50:34.797Z,16.00
2023-03-02T04:55:50.621Z,15.40
2023-03-02T04:58:23.170Z,15.57
2023-03-02T05:01:04.106Z,16.93
2023-03-02T05:03:38.181Z,15.37
2023-03-02T05:06:15.308Z,14.60
2023-03-02T05:08:46.456Z,15.03
2023-03-02T05:11:24.045Z,15.93
2023-03-02T05:13:57.135Z,15.03
2023-03-02T05:16:29.870Z,15.10
2023-03-02T05:19:01.185Z,15.87
2023-03-02T05:21:36.757Z,14.37
2023-03-02T05:24:08.117Z,16.10
2023-03-02T05:26:40.295Z,16.73
2023-03-02T05:29:13.682Z,15.03
2023-03-02T05:31:48.396Z,15.80
2023-03-02T05:34:22.328Z,14.97
2023-03-02T05:37:00.360Z,15.00
2023-03-02T05:39:32.705Z,14.57
2023-03-02T05:42:04.360Z,14.97
2023-03-02T05:44:37.246Z,15.40
2023-03-02T05:47:09.981Z,15.07
2023-03-02T05:49:51.869Z,16.30
2023-03-02T05:52:40.202Z,18.07
2023-03-02T05:55:15.428Z,17.13
2023-03-02T05:57:47.746Z,16.33
2023-03-02T06:00:29.011Z,15.93
2023-03-02T06:03:00.936Z,18.27
2023-03-02T06:05:39.670Z,17.93
2023-03-02T06:08:14.818Z,18.50
2023-03-02T06:11:00.218Z,18.57
2023-03-02T06:13:40.442Z,18.83
2023-03-02T06:16:43.873Z,17.27
2023-03-02T06:19:19.216Z,15.87
2023-03-02T06:24:56.871Z,16.17
2023-03-02T06:27:30.686Z,15.80
2023-03-02T06:30:04.500Z,15.93
2023-03-02T06:32:38.407Z,14.40
2023-03-02T06:35:11.792Z,14.67
2023-03-02T06:37:51.432Z,15.87
2023-03-02T06:40:41.805Z,16.47
2023-03-02T06:43:30.832Z,15.20
2023-03-02T06:46:19.420Z,15.37
2023-03-02T06:49:00.298Z,15.83
2023-03-02T06:51:40.529Z,15.97
2023-03-02T06:54:17.092Z,14.87
2023-03-02T06:57:01.322Z,16.23
2023-03-02T06:59:51.231Z,13.50
2023-03-02T07:05:31.061Z,14.73
2023-03-02T07:08:10.718Z,14.70
2023-03-02T07:14:37.661Z,15.10
2023-03-02T07:17:23.421Z,15.90
2023-03-02T07:20:11.542Z,15.37
2023-03-02T07:23:06.965Z,15.13
2023-03-02T07:26:39.278Z,15.47
2023-03-02T07:29:33.520Z,16.13
2023-03-02T07:32:27.187Z,15.27
2023-03-02T07:41:29.630Z,15.53
2023-03-02T10:13:01.612Z,14.60
2023-03-02T10:54:40.067Z,14.57
2023-03-02T11:22:58.118Z,14.10
2023-03-02T11:26:08.634Z,13.80
2023-03-02T11:29:07.251Z,13.90
2023-03-02T11:34:59.035Z,14.90
2023-03-02T11:37:58.861Z,13.67
2023-03-02T11:40:51.131Z,15.47
2023-03-02T11:43:54.907Z,15.13
2023-03-02T12:19:57.860Z,14.57
2023-03-02T12:22:32.208Z,14.63
2023-03-02T12:25:06.470Z,14.77
2023-03-02T12:30:26.194Z,14.68
2023-03-02T12:33:16.050Z,14.73
2023-03-02T12:35:45.852Z,14.25
2023-03-02T12:38:31.206Z,15.50
2023-03-02T12:41:22.148Z,14.73
2023-03-02T12:44:16.784Z,14.65
2023-03-02T12:46:47.702Z,14.80
2023-03-02T12:49:36.384Z,14.68
2023-03-02T12:52:24.199Z,15.70
2023-03-02T12:55:03.250Z,15.27
2023-03-02T12:57:32.106Z,15.13
2023-03-02T13:00:04.461Z,15.68
2023-03-02T13:02:35.528Z,14.68
2023-03-02T13:05:07.605Z,15.68
2023-03-02T13:07:44.923Z,16.02
2023-03-02T13:10:28.453Z,16.88
2023-03-02T13:12:57.795Z,15.45
2023-03-02T13:15:26.109Z,14.68
2023-03-02T13:17:57.411Z,15.73
2023-03-02T13:20:29.922Z,15.20
2023-03-02T13:22:59.764Z,15.18
2023-03-02T13:25:31.468Z,15.00
2023-03-02T13:28:07.687Z,17.08
2023-03-02T13:30:47.677Z,17.67
2023-03-02T13:33:24.531Z,14.20
2023-03-02T13:35:53.294Z,14.68
2023-03-02T13:38:26.231Z,14.30
2023-03-02T13:40:56.452Z,15.65
2023-03-02T13:43:36.372Z,15.55
2023-03-02T13:46:08.425Z,15.73
2023-03-02T13:48:38.068Z,22.35
2023-03-02T13:51:18.741Z,15.63
2023-03-02T13:53:56.002Z,14.45
2023-03-02T13:56:31.311Z,14.75
2023-03-02T13:59:00.002Z,15.25
2023-03-02T14:01:29.917Z,15.40
2023-03-02T14:04:00.483Z,15.25
2023-03-02T14:06:28.664Z,14.88
2023-03-02T14:08:58.172Z,16.35
2023-03-02T14:11:36.868Z,15.38
2023-03-02T14:14:07.870Z,15.60
2023-03-02T14:16:36.264Z,16.00
2023-03-02T14:19:05.015Z,15.73
2023-03-02T14:21:33.372Z,15.82
2023-03-02T14:24:03.261Z,14.98
2023-03-02T14:26:35.856Z,15.60
2023-03-02T14:29:14.186Z,15.95
2023-03-02T14:31:42.411Z,16.00
2023-03-02T14:34:13.860Z,14.85
2023-03-02T14:36:45.032Z,17.58
2023-03-02T14:39:23.099Z,16.33
2023-03-02T14:41:54.404Z,19.33
2023-03-02T14:44:24.029Z,16.17
2023-03-02T14:46:53.722Z,15.65
2023-03-02T14:49:22.213Z,16.85
2023-03-02T14:52:01.212Z,16.80
2023-03-02T14:54:39.547Z,16.95
2023-03-02T16:39:41.110Z,19.17
2023-03-02T16:42:13.561Z,18.60
2023-03-02T16:44:46.170Z,25.03
2023-03-02T16:47:17.425Z,23.63
2023-03-02T21:25:48.652Z,18.43
2023-03-02T21:32:11.481Z,22.03
2023-03-02T21:38:27.414Z,23.87
2023-03-02T21:44:50.685Z,16.83
2023-03-02T21:47:45.336Z,13.43
2023-03-02T21:53:32.611Z,13.17
2023-03-02T21:56:35.159Z,13.47
2023-03-02T22:02:36.055Z,17.60
2023-03-02T22:05:34.333Z,12.90
2023-03-02T22:08:41.096Z,17.40
2023-03-02T22:11:23.969Z,14.47
2023-03-02T22:14:14.414Z,14.07
2023-03-02T22:17:14.058Z,13.97
2023-03-02T22:20:02.274Z,13.67
2023-03-02T22:23:00.115Z,14.63
2023-03-02T22:25:36.324Z,15.53
2023-03-02T22:31:46.034Z,17.70
2023-03-02T22:34:44.141Z,19.40
2023-03-02T22:41:26.580Z,21.83
2023-03-02T22:44:40.000Z,17.63
2023-03-02T22:50:33.390Z,13.07
2023-03-02T22:53:29.432Z,12.03
2023-03-02T22:57:01.487Z,12.13
2023-03-02T22:59:43.389Z,13.97
2023-03-02T23:03:07.534Z,12.10
2023-03-02T23:05:42.081Z,12.33
2023-03-02T23:08:26.546Z,14.53
2023-03-02T23:11:08.913Z,13.13
2023-03-02T23:13:54.142Z,16.97
2023-03-02T23:22:58.429Z,13.90
2023-03-02T23:25:36.800Z,19.53
2023-03-02T23:31:13.503Z,13.70
2023-03-02T23:34:12.755Z,13.07
2023-03-02T23:37:00.440Z,13.37
2023-03-02T23:39:36.335Z,11.70
2023-03-02T23:45:16.286Z,12.07
2023-03-02T23:48:01.780Z,12.63
2023-03-02T23:50:43.411Z,13.23
2023-03-02T23:56:27.858Z,11.20
2023-03-02T23:59:36.413Z,11.87
